TAF KDRT
KDRT 081733Z 0818/0918 14004KT P6SM FEW250 FM091300 10003KT 4SM BR BKN007 FM091600 VRB03KT 6SM BR BKN011 FM091700 VRB04KT P6SM BKN250=
METAR KDRT
WC KDRT
WS KDRT
WV KDRT